sensor_id;sensor_type;location;lat;lon;timestamp;pressure;altitude;pressure_sealevel;temperature;humidity
71938;BME280;59810;48.800;9.086;2022-10-23T00:01:40;97704.00;;;13.09;85.04
71938;BME280;59810;48.800;9.086;2022-10-23T00:04:14;97698.00;;;13.02;85.15
71938;BME280;59810;48.800;9.086;2022-10-23T00:06:40;97700.97;;;13.00;85.21
71938;BME280;59810;48.800;9.086;2022-10-23T00:09:07;97694.69;;;12.90;86.10
71938;BME280;59810;48.800;9.086;2022-10-23T00:11:33;97692.25;;;12.88;86.04
71938;BME280;59810;48.800;9.086;2022-10-23T00:14:00;97694.38;;;12.81;86.33
71938;BME280;59810;48.800;9.086;2022-10-23T00:16:26;97689.41;;;12.68;87.26
71938;BME280;59810;48.800;9.086;2022-10-23T00:18:52;97688.34;;;12.69;86.44
71938;BME280;59810;48.800;9.086;2022-10-23T00:21:18;97687.28;;;12.75;86.79
71938;BME280;59810;48.800;9.086;2022-10-23T00:23:44;97695.97;;;12.77;86.75
71938;BME280;59810;48.800;9.086;2022-10-23T00:26:09;97698.72;;;12.82;86.09
71938;BME280;59810;48.800;9.086;2022-10-23T00:28:39;97700.28;;;12.73;85.85
71938;BME280;59810;48.800;9.086;2022-10-23T00:31:07;97705.75;;;12.78;85.49
71938;BME280;59810;48.800;9.086;2022-10-23T00:33:32;97709.22;;;12.73;86.83
71938;BME280;59810;48.800;9.086;2022-10-23T00:36:03;97706.72;;;12.67;87.28
71938;BME280;59810;48.800;9.086;2022-10-23T00:38:28;97707.53;;;12.67;86.50
71938;BME280;59810;48.800;9.086;2022-10-23T00:40:54;97697.22;;;12.59;86.72
71938;BME280;59810;48.800;9.086;2022-10-23T00:43:22;97691.19;;;12.47;87.50
71938;BME280;59810;48.800;9.086;2022-10-23T00:45:51;97704.16;;;12.45;87.34
71938;BME280;59810;48.800;9.086;2022-10-23T00:48:17;97697.63;;;12.41;87.38
71938;BME280;59810;48.800;9.086;2022-10-23T00:50:43;97692.19;;;12.36;86.92
71938;BME280;59810;48.800;9.086;2022-10-23T00:53:10;97684.88;;;12.36;87.18
71938;BME280;59810;48.800;9.086;2022-10-23T00:55:38;97681.53;;;12.24;87.57
71938;BME280;59810;48.800;9.086;2022-10-23T00:58:06;97685.88;;;12.25;86.91
71938;BME280;59810;48.800;9.086;2022-10-23T01:00:52;97681.53;;;12.24;87.43
71938;BME280;59810;48.800;9.086;2022-10-23T01:03:20;97686.16;;;12.29;87.88
71938;BME280;59810;48.800;9.086;2022-10-23T01:06:00;97686.72;;;12.31;87.11
71938;BME280;59810;48.800;9.086;2022-10-23T01:08:49;97689.84;;;12.12;87.10
71938;BME280;59810;48.800;9.086;2022-10-23T01:17:08;97686.88;;;12.14;87.39
71938;BME280;59810;48.800;9.086;2022-10-23T01:20:20;97673.00;;;12.05;87.42
71938;BME280;59810;48.800;9.086;2022-10-23T01:30:59;97657.25;;;12.02;87.68
71938;BME280;59810;48.800;9.086;2022-10-23T01:33:34;97655.44;;;12.08;87.91
71938;BME280;59810;48.800;9.086;2022-10-23T01:36:10;97657.78;;;11.99;87.63
71938;BME280;59810;48.800;9.086;2022-10-23T01:41:16;97650.13;;;11.91;88.31
71938;BME280;59810;48.800;9.086;2022-10-23T01:46:21;97647.72;;;11.95;88.30
71938;BME280;59810;48.800;9.086;2022-10-23T01:48:52;97643.13;;;11.95;87.94
71938;BME280;59810;48.800;9.086;2022-10-23T01:51:20;97645.84;;;11.95;88.23
71938;BME280;59810;48.800;9.086;2022-10-23T01:53:48;97648.84;;;11.99;88.56
71938;BME280;59810;48.800;9.086;2022-10-23T01:56:22;97649.91;;;11.98;88.44
71938;BME280;59810;48.800;9.086;2022-10-23T01:58:51;97643.41;;;11.94;87.97
71938;BME280;59810;48.800;9.086;2022-10-23T02:01:20;97630.63;;;11.89;87.42
71938;BME280;59810;48.800;9.086;2022-10-23T02:03:47;97641.50;;;11.94;88.08
71938;BME280;59810;48.800;9.086;2022-10-23T02:06:16;97637.13;;;11.88;88.12
71938;BME280;59810;48.800;9.086;2022-10-23T02:08:41;97635.75;;;11.86;88.71
71938;BME280;59810;48.800;9.086;2022-10-23T02:11:13;97634.72;;;11.92;88.13
71938;BME280;59810;48.800;9.086;2022-10-23T02:16:51;97632.28;;;11.90;87.58
71938;BME280;59810;48.800;9.086;2022-10-23T02:22:08;97626.34;;;11.93;88.41
71938;BME280;59810;48.800;9.086;2022-10-23T02:24:48;97617.06;;;11.84;88.91
71938;BME280;59810;48.800;9.086;2022-10-23T02:27:23;97613.00;;;11.81;88.57
71938;BME280;59810;48.800;9.086;2022-10-23T02:30:02;97612.53;;;11.90;88.07
71938;BME280;59810;48.800;9.086;2022-10-23T02:32:28;97608.44;;;11.87;88.34
71938;BME280;59810;48.800;9.086;2022-10-23T02:34:54;97612.78;;;11.88;88.81
71938;BME280;59810;48.800;9.086;2022-10-23T02:37:19;97604.63;;;11.83;89.10
71938;BME280;59810;48.800;9.086;2022-10-23T02:39:45;97606.81;;;11.86;88.54
71938;BME280;59810;48.800;9.086;2022-10-23T02:45:08;97595.97;;;11.81;89.19
71938;BME280;59810;48.800;9.086;2022-10-23T02:50:36;97593.28;;;11.86;89.12
71938;BME280;59810;48.800;9.086;2022-10-23T02:53:17;97585.16;;;11.86;88.69
71938;BME280;59810;48.800;9.086;2022-10-23T03:01:13;97586.69;;;11.77;88.90
71938;BME280;59810;48.800;9.086;2022-10-23T03:03:55;97587.84;;;11.81;88.42
71938;BME280;59810;48.800;9.086;2022-10-23T03:06:22;97585.66;;;11.78;88.87
71938;BME280;59810;48.800;9.086;2022-10-23T03:08:59;97590.59;;;11.86;88.49
71938;BME280;59810;48.800;9.086;2022-10-23T03:11:26;97585.13;;;11.81;88.56
71938;BME280;59810;48.800;9.086;2022-10-23T03:13:51;97584.50;;;11.74;88.68
71938;BME280;59810;48.800;9.086;2022-10-23T03:16:17;97586.22;;;11.80;88.22
71938;BME280;59810;48.800;9.086;2022-10-23T03:18:42;97581.34;;;11.82;87.80
71938;BME280;59810;48.800;9.086;2022-10-23T03:21:08;97578.38;;;11.83;87.92
71938;BME280;59810;48.800;9.086;2022-10-23T03:23:33;97582.09;;;11.77;88.61
71938;BME280;59810;48.800;9.086;2022-10-23T03:25:58;97583.97;;;11.72;88.52
71938;BME280;59810;48.800;9.086;2022-10-23T03:28:24;97579.56;;;11.66;88.92
71938;BME280;59810;48.800;9.086;2022-10-23T03:30:49;97578.47;;;11.67;88.88
71938;BME280;59810;48.800;9.086;2022-10-23T03:33:14;97570.28;;;11.57;89.16
71938;BME280;59810;48.800;9.086;2022-10-23T03:35:44;97575.16;;;11.54;88.03
71938;BME280;59810;48.800;9.086;2022-10-23T03:38:10;97570.84;;;11.59;88.57
71938;BME280;59810;48.800;9.086;2022-10-23T03:40:35;97560.56;;;11.56;88.14
71938;BME280;59810;48.800;9.086;2022-10-23T03:43:00;97563.78;;;11.52;88.51
71938;BME280;59810;48.800;9.086;2022-10-23T03:45:26;97568.06;;;11.48;88.85
71938;BME280;59810;48.800;9.086;2022-10-23T03:47:53;97570.28;;;11.57;88.76
71938;BME280;59810;48.800;9.086;2022-10-23T03:50:19;97561.91;;;11.58;88.54
71938;BME280;59810;48.800;9.086;2022-10-23T03:52:45;97559.13;;;11.48;89.21
71938;BME280;59810;48.800;9.086;2022-10-23T03:55:10;97558.03;;;11.44;89.29
71938;BME280;59810;48.800;9.086;2022-10-23T03:57:36;97559.28;;;11.36;89.33
71938;BME280;59810;48.800;9.086;2022-10-23T04:00:03;97559.88;;;11.38;88.86
71938;BME280;59810;48.800;9.086;2022-10-23T04:02:29;97560.44;;;11.40;89.56
71938;BME280;59810;48.800;9.086;2022-10-23T04:04:55;97569.16;;;11.47;88.94
71938;BME280;59810;48.800;9.086;2022-10-23T04:07:27;97566.19;;;11.49;88.95
71938;BME280;59810;48.800;9.086;2022-10-23T04:09:53;97563.81;;;11.58;89.44
71938;BME280;59810;48.800;9.086;2022-10-23T04:12:18;97569.75;;;11.54;89.34
71938;BME280;59810;48.800;9.086;2022-10-23T04:14:44;97565.91;;;11.50;89.83
71938;BME280;59810;48.800;9.086;2022-10-23T04:17:09;97563.25;;;11.56;89.63
71938;BME280;59810;48.800;9.086;2022-10-23T04:19:34;97570.03;;;11.58;89.16
71938;BME280;59810;48.800;9.086;2022-10-23T04:22:02;97581.41;;;11.60;89.24
71938;BME280;59810;48.800;9.086;2022-10-23T04:24:28;97565.44;;;11.59;89.00
71938;BME280;59810;48.800;9.086;2022-10-23T04:26:53;97577.03;;;11.54;89.66
71938;BME280;59810;48.800;9.086;2022-10-23T04:29:18;97570.00;;;11.53;89.73
71938;BME280;59810;48.800;9.086;2022-10-23T04:31:46;97569.16;;;11.47;89.65
71938;BME280;59810;48.800;9.086;2022-10-23T04:34:12;97572.97;;;11.51;88.98
71938;BME280;59810;48.800;9.086;2022-10-23T04:36:37;97571.88;;;11.52;89.34
71938;BME280;59810;48.800;9.086;2022-10-23T04:39:05;97562.09;;;11.46;89.81
71938;BME280;59810;48.800;9.086;2022-10-23T04:41:31;97558.84;;;11.44;90.61
71938;BME280;59810;48.800;9.086;2022-10-23T04:43:56;97562.69;;;11.53;89.86
71938;BME280;59810;48.800;9.086;2022-10-23T04:46:22;97560.47;;;11.45;90.27
71938;BME280;59810;48.800;9.086;2022-10-23T04:48:50;97562.41;;;11.50;90.30
71938;BME280;59810;48.800;9.086;2022-10-23T04:51:15;97561.66;;;11.60;90.32
71938;BME280;59810;48.800;9.086;2022-10-23T04:53:41;97562.97;;;11.52;90.36
71938;BME280;59810;48.800;9.086;2022-10-23T04:56:06;97564.66;;;11.63;89.87
71938;BME280;59810;48.800;9.086;2022-10-23T04:58:34;97560.59;;;11.61;90.55
71938;BME280;59810;48.800;9.086;2022-10-23T05:01:02;97559.78;;;11.60;90.98
71938;BME280;59810;48.800;9.086;2022-10-23T05:03:27;97554.66;;;11.64;90.52
71938;BME280;59810;48.800;9.086;2022-10-23T05:05:53;97553.06;;;11.68;90.39
71938;BME280;59810;48.800;9.086;2022-10-23T05:08:20;97545.47;;;11.65;90.48
71938;BME280;59810;48.800;9.086;2022-10-23T05:10:47;97564.69;;;11.68;90.06
71938;BME280;59810;48.800;9.086;2022-10-23T05:13:13;97552.59;;;11.71;90.24
71938;BME280;59810;48.800;9.086;2022-10-23T05:15:39;97555.84;;;11.73;90.43
71938;BME280;59810;48.800;9.086;2022-10-23T05:18:27;97550.72;;;11.76;90.17
71938;BME280;59810;48.800;9.086;2022-10-23T05:20:59;97545.84;;;11.73;90.31
71938;BME280;59810;48.800;9.086;2022-10-23T05:23:25;97544.41;;;11.66;90.51
71938;BME280;59810;48.800;9.086;2022-10-23T05:25:55;97547.16;;;11.71;90.29
71938;BME280;59810;48.800;9.086;2022-10-23T05:28:23;97545.50;;;11.70;90.51
71938;BME280;59810;48.800;9.086;2022-10-23T05:30:48;97538.53;;;11.74;90.33
71938;BME280;59810;48.800;9.086;2022-10-23T05:33:14;97535.50;;;11.70;91.00
71938;BME280;59810;48.800;9.086;2022-10-23T05:35:40;97543.88;;;11.69;90.30
71938;BME280;59810;48.800;9.086;2022-10-23T05:38:07;97533.06;;;11.69;91.22
71938;BME280;59810;48.800;9.086;2022-10-23T05:40:33;97532.56;;;11.72;91.00
71938;BME280;59810;48.800;9.086;2022-10-23T05:42:58;97532.56;;;11.72;90.80
71938;BME280;59810;48.800;9.086;2022-10-23T05:45:24;97526.56;;;11.70;90.43
71938;BME280;59810;48.800;9.086;2022-10-23T05:47:49;97520.63;;;11.68;90.41
71938;BME280;59810;48.800;9.086;2022-10-23T05:50:15;97518.97;;;11.67;89.93
71938;BME280;59810;48.800;9.086;2022-10-23T05:52:40;97516.53;;;11.65;89.74
71938;BME280;59810;48.800;9.086;2022-10-23T05:55:06;97512.69;;;11.56;90.32
71938;BME280;59810;48.800;9.086;2022-10-23T05:57:32;97512.44;;;11.58;90.38
71938;BME280;59810;48.800;9.086;2022-10-23T05:59:58;97512.72;;;11.61;90.41
71938;BME280;59810;48.800;9.086;2022-10-23T06:02:23;97508.13;;;11.62;90.86
71938;BME280;59810;48.800;9.086;2022-10-23T06:04:51;97507.28;;;11.56;90.82
71938;BME280;59810;48.800;9.086;2022-10-23T06:07:22;97509.72;;;11.58;90.40
71938;BME280;59810;48.800;9.086;2022-10-23T06:09:47;97516.25;;;11.62;90.93
71938;BME280;59810;48.800;9.086;2022-10-23T06:12:13;97515.19;;;11.63;91.17
71938;BME280;59810;48.800;9.086;2022-10-23T06:14:40;97514.63;;;11.61;90.40
71938;BME280;59810;48.800;9.086;2022-10-23T06:17:06;97511.44;;;11.69;91.15
71938;BME280;59810;48.800;9.086;2022-10-23T06:19:31;97508.16;;;11.67;91.42
71938;BME280;59810;48.800;9.086;2022-10-23T06:21:56;97504.94;;;11.70;90.95
71938;BME280;59810;48.800;9.086;2022-10-23T06:24:22;97504.19;;;11.74;90.27
71938;BME280;59810;48.800;9.086;2022-10-23T06:26:49;97502.00;;;11.71;90.73
71938;BME280;59810;48.800;9.086;2022-10-23T06:29:17;97503.16;;;11.80;89.82
71938;BME280;59810;48.800;9.086;2022-10-23T06:31:42;97511.03;;;11.82;90.63
71938;BME280;59810;48.800;9.086;2022-10-23T06:34:11;97499.16;;;11.88;90.21
71938;BME280;59810;48.800;9.086;2022-10-23T06:36:36;97511.75;;;11.72;90.52
71938;BME280;59810;48.800;9.086;2022-10-23T06:39:03;97501.84;;;11.83;91.32
71938;BME280;59810;48.800;9.086;2022-10-23T06:41:28;97507.31;;;11.98;90.42
71938;BME280;59810;48.800;9.086;2022-10-23T06:43:53;97507.94;;;12.05;90.47
71938;BME280;59810;48.800;9.086;2022-10-23T06:46:19;97500.94;;;12.14;90.29
71938;BME280;59810;48.800;9.086;2022-10-23T06:48:47;97497.16;;;12.15;90.78
71938;BME280;59810;48.800;9.086;2022-10-23T06:51:14;97493.94;;;12.24;90.61
71938;BME280;59810;48.800;9.086;2022-10-23T06:53:43;97500.72;;;12.26;90.38
71938;BME280;59810;48.800;9.086;2022-10-23T06:56:09;97490.72;;;12.32;89.98
71938;BME280;59810;48.800;9.086;2022-10-23T06:58:36;97490.69;;;12.27;90.32
71938;BME280;59810;48.800;9.086;2022-10-23T07:01:04;97492.66;;;12.36;89.80
71938;BME280;59810;48.800;9.086;2022-10-23T07:03:30;97491.84;;;12.41;89.53
71938;BME280;59810;48.800;9.086;2022-10-23T07:06:03;97488.63;;;12.49;88.72
71938;BME280;59810;48.800;9.086;2022-10-23T07:08:29;97498.13;;;12.52;89.10
71938;BME280;59810;48.800;9.086;2022-10-23T07:10:54;97495.69;;;12.50;88.78
71938;BME280;59810;48.800;9.086;2022-10-23T07:13:21;97494.31;;;12.53;89.44
71938;BME280;59810;48.800;9.086;2022-10-23T07:15:46;97491.63;;;12.58;88.86
71938;BME280;59810;48.800;9.086;2022-10-23T07:18:12;97495.97;;;12.64;88.72
71938;BME280;59810;48.800;9.086;2022-10-23T07:20:42;97494.13;;;12.69;88.65
71938;BME280;59810;48.800;9.086;2022-10-23T07:23:10;97486.53;;;12.71;88.05
71938;BME280;59810;48.800;9.086;2022-10-23T07:25:38;97487.91;;;12.74;88.55
71938;BME280;59810;48.800;9.086;2022-10-23T07:28:03;97486.56;;;12.76;88.78
71938;BME280;59810;48.800;9.086;2022-10-23T07:30:29;97481.97;;;12.82;88.71
71938;BME280;59810;48.800;9.086;2022-10-23T07:32:55;97487.94;;;12.89;87.93
71938;BME280;59810;48.800;9.086;2022-10-23T07:35:20;97500.41;;;12.95;87.83
71938;BME280;59810;48.800;9.086;2022-10-23T07:37:46;97502.34;;;13.05;87.33
71938;BME280;59810;48.800;9.086;2022-10-23T07:40:13;97503.19;;;13.21;91.84
71938;BME280;59810;48.800;9.086;2022-10-23T07:42:43;97503.19;;;13.26;88.80
71938;BME280;59810;48.800;9.086;2022-10-23T07:45:08;97510.78;;;13.24;87.50
71938;BME280;59810;48.800;9.086;2022-10-23T07:47:34;97508.59;;;13.31;86.64
71938;BME280;59810;48.800;9.086;2022-10-23T07:50:02;97508.34;;;13.32;86.13
71938;BME280;59810;48.800;9.086;2022-10-23T07:52:27;97508.91;;;13.39;86.59
71938;BME280;59810;48.800;9.086;2022-10-23T07:54:52;97515.94;;;13.41;86.74
71938;BME280;59810;48.800;9.086;2022-10-23T07:57:19;97517.56;;;13.47;87.12
71938;BME280;59810;48.800;9.086;2022-10-23T07:59:44;97510.53;;;13.51;86.49
71938;BME280;59810;48.800;9.086;2022-10-23T08:02:13;97507.25;;;13.59;86.62
71938;BME280;59810;48.800;9.086;2022-10-23T08:04:39;97504.03;;;13.67;86.28
71938;BME280;59810;48.800;9.086;2022-10-23T08:07:04;97501.81;;;13.79;88.76
71938;BME280;59810;48.800;9.086;2022-10-23T08:09:30;97495.84;;;13.87;87.21
71938;BME280;59810;48.800;9.086;2022-10-23T08:11:57;97491.47;;;13.91;86.44
71938;BME280;59810;48.800;9.086;2022-10-23T08:14:23;97490.94;;;13.99;85.99
71938;BME280;59810;48.800;9.086;2022-10-23T08:16:48;97498.50;;;14.08;85.25
71938;BME280;59810;48.800;9.086;2022-10-23T08:19:13;97494.97;;;14.12;84.48
71938;BME280;59810;48.800;9.086;2022-10-23T08:21:39;97496.84;;;14.22;83.53
71938;BME280;59810;48.800;9.086;2022-10-23T08:24:04;97495.19;;;14.31;82.76
71938;BME280;59810;48.800;9.086;2022-10-23T08:26:30;97490.28;;;14.38;82.13
71938;BME280;59810;48.800;9.086;2022-10-23T08:28:57;97483.75;;;14.44;81.57
71938;BME280;59810;48.800;9.086;2022-10-23T08:31:26;97473.94;;;14.53;81.27
71938;BME280;59810;48.800;9.086;2022-10-23T08:33:51;97474.78;;;14.49;82.62
71938;BME280;59810;48.800;9.086;2022-10-23T08:36:22;97479.34;;;14.58;82.09
71938;BME280;59810;48.800;9.086;2022-10-23T08:38:48;97473.34;;;14.67;81.66
71938;BME280;59810;48.800;9.086;2022-10-23T08:41:37;97472.00;;;14.64;83.08
71938;BME280;59810;48.800;9.086;2022-10-23T08:44:17;97469.78;;;14.71;82.26
71938;BME280;59810;48.800;9.086;2022-10-23T08:46:48;97473.28;;;14.77;82.53
71938;BME280;59810;48.800;9.086;2022-10-23T08:49:38;97468.09;;;14.80;81.76
71938;BME280;59810;48.800;9.086;2022-10-23T08:52:26;97469.44;;;14.83;81.40
71938;BME280;59810;48.800;9.086;2022-10-23T08:57:46;97461.78;;;14.90;81.04
71938;BME280;59810;48.800;9.086;2022-10-23T09:00:16;97476.13;;;14.95;81.05
71938;BME280;59810;48.800;9.086;2022-10-23T09:02:47;97470.41;;;15.02;81.52
71938;BME280;59810;48.800;9.086;2022-10-23T09:05:18;97462.44;;;15.11;81.46
71938;BME280;59810;48.800;9.086;2022-10-23T09:07:58;97469.69;;;15.25;81.51
71938;BME280;59810;48.800;9.086;2022-10-23T09:10:33;97469.84;;;15.39;81.25
71938;BME280;59810;48.800;9.086;2022-10-23T09:18:41;97467.19;;;15.68;80.21
71938;BME280;59810;48.800;9.086;2022-10-23T09:21:10;97466.84;;;15.75;79.66
71938;BME280;59810;48.800;9.086;2022-10-23T09:23:35;97463.72;;;15.86;79.65
71938;BME280;59810;48.800;9.086;2022-10-23T09:26:01;97459.00;;;15.97;79.31
71938;BME280;59810;48.800;9.086;2022-10-23T09:28:35;97463.22;;;16.08;79.45
71938;BME280;59810;48.800;9.086;2022-10-23T09:31:08;97463.41;;;16.17;79.28
71938;BME280;59810;48.800;9.086;2022-10-23T09:33:34;97457.78;;;16.32;74.78
71938;BME280;59810;48.800;9.086;2022-10-23T09:41:27;97451.03;;;16.91;76.02
71938;BME280;59810;48.800;9.086;2022-10-23T09:46:43;97457.00;;;17.12;75.49
71938;BME280;59810;48.800;9.086;2022-10-23T09:49:21;97452.72;;;17.25;69.13
71938;BME280;59810;48.800;9.086;2022-10-23T09:51:58;97439.84;;;17.44;71.50
71938;BME280;59810;48.800;9.086;2022-10-23T09:54:25;97428.72;;;17.54;71.59
71938;BME280;59810;48.800;9.086;2022-10-23T09:56:52;97427.47;;;17.65;72.66
71938;BME280;59810;48.800;9.086;2022-10-23T09:59:29;97431.66;;;17.77;72.71
71938;BME280;59810;48.800;9.086;2022-10-23T10:01:59;97431.44;;;17.87;71.81
71938;BME280;59810;48.800;9.086;2022-10-23T10:07:01;97448.38;;;18.02;70.75
71938;BME280;59810;48.800;9.086;2022-10-23T10:09:30;97454.44;;;18.13;70.30
71938;BME280;59810;48.800;9.086;2022-10-23T10:12:20;97454.78;;;18.25;68.54
71938;BME280;59810;48.800;9.086;2022-10-23T10:20:18;97448.34;;;18.85;62.42
71938;BME280;59810;48.800;9.086;2022-10-23T10:23:27;97438.38;;;19.03;61.37
71938;BME280;59810;48.800;9.086;2022-10-23T10:36:49;97421.03;;;20.14;58.12
71938;BME280;59810;48.800;9.086;2022-10-23T10:47:53;97390.22;;;20.65;55.11
71938;BME280;59810;48.800;9.086;2022-10-23T10:50:27;97398.28;;;20.70;54.60
71938;BME280;59810;48.800;9.086;2022-10-23T10:55:40;97405.72;;;20.61;52.90
71938;BME280;59810;48.800;9.086;2022-10-23T10:58:27;97412.66;;;20.59;52.73
71938;BME280;59810;48.800;9.086;2022-10-23T11:00:58;97405.72;;;20.61;51.60
71938;BME280;59810;48.800;9.086;2022-10-23T11:03:48;97417.19;;;20.72;52.97
71938;BME280;59810;48.800;9.086;2022-10-23T11:06:19;97410.88;;;20.71;51.92
71938;BME280;59810;48.800;9.086;2022-10-23T11:08:47;97406.53;;;20.79;52.13
71938;BME280;59810;48.800;9.086;2022-10-23T11:11:21;97394.44;;;20.80;51.31
71938;BME280;59810;48.800;9.086;2022-10-23T11:13:49;97392.34;;;20.86;52.44
71938;BME280;59810;48.800;9.086;2022-10-23T11:16:31;97388.00;;;20.93;52.40
71938;BME280;59810;48.800;9.086;2022-10-23T11:19:03;97386.84;;;21.03;53.30
71938;BME280;59810;48.800;9.086;2022-10-23T11:26:54;97369.41;;;21.07;54.84
71938;BME280;59810;48.800;9.086;2022-10-23T11:35:44;97351.81;;;21.00;53.55
71938;BME280;59810;48.800;9.086;2022-10-23T11:40:44;97367.31;;;21.04;53.56
71938;BME280;59810;48.800;9.086;2022-10-23T11:43:10;97357.78;;;21.02;51.87
71938;BME280;59810;48.800;9.086;2022-10-23T11:45:37;97354.38;;;21.05;51.39
71938;BME280;59810;48.800;9.086;2022-10-23T11:48:37;97346.31;;;21.08;51.69
71938;BME280;59810;48.800;9.086;2022-10-23T11:51:03;97346.47;;;21.12;52.62
71938;BME280;59810;48.800;9.086;2022-10-23T11:58:38;97335.34;;;21.26;52.10
71938;BME280;59810;48.800;9.086;2022-10-23T12:01:18;97335.00;;;21.27;51.35
71938;BME280;59810;48.800;9.086;2022-10-23T12:03:52;97338.09;;;21.26;51.69
71938;BME280;59810;48.800;9.086;2022-10-23T12:06:26;97338.25;;;21.29;52.18
71938;BME280;59810;48.800;9.086;2022-10-23T12:08:57;97329.66;;;21.31;52.64
71938;BME280;59810;48.800;9.086;2022-10-23T12:11:28;97325.00;;;21.31;52.13
71938;BME280;59810;48.800;9.086;2022-10-23T12:14:04;97323.22;;;21.27;51.92
71938;BME280;59810;48.800;9.086;2022-10-23T12:16:34;97325.66;;;21.28;53.04
71938;BME280;59810;48.800;9.086;2022-10-23T12:19:16;97317.88;;;21.30;53.18
71938;BME280;59810;48.800;9.086;2022-10-23T12:21:43;97312.38;;;21.30;52.25
71938;BME280;59810;48.800;9.086;2022-10-23T12:24:37;97324.81;;;21.36;52.02
71938;BME280;59810;48.800;9.086;2022-10-23T12:27:29;97317.69;;;21.35;52.36
71938;BME280;59810;48.800;9.086;2022-10-23T12:32:47;97315.09;;;21.48;52.72
71938;BME280;59810;48.800;9.086;2022-10-23T12:40:21;97309.63;;;21.77;53.49
71938;BME280;59810;48.800;9.086;2022-10-23T12:42:55;97302.03;;;21.83;52.55
71938;BME280;59810;48.800;9.086;2022-10-23T12:45:26;97300.09;;;21.83;53.71
71938;BME280;59810;48.800;9.086;2022-10-23T12:47:53;97299.81;;;22.05;51.37
71938;BME280;59810;48.800;9.086;2022-10-23T12:50:28;97304.00;;;22.32;51.67
71938;BME280;59810;48.800;9.086;2022-10-23T12:53:00;97292.63;;;22.63;54.44
71938;BME280;59810;48.800;9.086;2022-10-23T12:55:28;97283.66;;;23.08;52.29
71938;BME280;59810;48.800;9.086;2022-10-23T12:57:54;97282.00;;;23.40;49.05
71938;BME280;59810;48.800;9.086;2022-10-23T13:00:22;97280.13;;;23.65;47.80
71938;BME280;59810;48.800;9.086;2022-10-23T13:03:01;97263.47;;;23.74;47.02
71938;BME280;59810;48.800;9.086;2022-10-23T13:05:28;97256.22;;;23.94;47.57
71938;BME280;59810;48.800;9.086;2022-10-23T13:07:56;97254.50;;;24.13;46.45
71938;BME280;59810;48.800;9.086;2022-10-23T13:10:24;97256.91;;;24.15;46.66
71938;BME280;59810;48.800;9.086;2022-10-23T13:12:55;97257.16;;;23.98;47.94
71938;BME280;59810;48.800;9.086;2022-10-23T13:15:21;97241.09;;;23.75;48.93
71938;BME280;59810;48.800;9.086;2022-10-23T13:20:28;97234.28;;;23.97;50.74
71938;BME280;59810;48.800;9.086;2022-10-23T13:23:36;97247.72;;;23.99;51.40
71938;BME280;59810;48.800;9.086;2022-10-23T13:28:50;97244.88;;;23.58;49.21
71938;BME280;59810;48.800;9.086;2022-10-23T13:33:44;97231.50;;;22.91;54.50
71938;BME280;59810;48.800;9.086;2022-10-23T13:38:39;97246.50;;;22.40;57.71
71938;BME280;59810;48.800;9.086;2022-10-23T13:41:10;97251.94;;;22.07;59.10
71938;BME280;59810;48.800;9.086;2022-10-23T13:43:37;97245.91;;;21.84;60.84
71938;BME280;59810;48.800;9.086;2022-10-23T13:46:02;97231.03;;;21.55;62.26
71938;BME280;59810;48.800;9.086;2022-10-23T13:48:28;97228.88;;;21.31;63.99
71938;BME280;59810;48.800;9.086;2022-10-23T13:50:58;97234.06;;;21.24;64.61
71938;BME280;59810;48.800;9.086;2022-10-23T13:53:25;97232.75;;;21.13;65.32
71938;BME280;59810;48.800;9.086;2022-10-23T13:55:51;97233.66;;;20.88;66.08
71938;BME280;59810;48.800;9.086;2022-10-23T13:58:17;97231.72;;;20.79;67.15
71938;BME280;59810;48.800;9.086;2022-10-23T14:00:43;97227.53;;;20.73;68.48
71938;BME280;59810;48.800;9.086;2022-10-23T14:03:13;97230.16;;;20.61;69.58
71938;BME280;59810;48.800;9.086;2022-10-23T14:05:41;97238.22;;;20.49;69.56
71938;BME280;59810;48.800;9.086;2022-10-23T14:08:06;97222.06;;;20.39;69.51
71938;BME280;59810;48.800;9.086;2022-10-23T14:10:32;97228.53;;;20.26;70.30
71938;BME280;59810;48.800;9.086;2022-10-23T14:12:59;97224.97;;;20.16;70.78
71938;BME280;59810;48.800;9.086;2022-10-23T14:15:24;97232.03;;;20.09;70.86
71938;BME280;59810;48.800;9.086;2022-10-23T14:17:50;97227.19;;;19.97;71.44
71938;BME280;59810;48.800;9.086;2022-10-23T14:20:18;97220.09;;;19.87;72.13
71938;BME280;59810;48.800;9.086;2022-10-23T14:22:43;97210.72;;;19.80;70.65
71938;BME280;59810;48.800;9.086;2022-10-23T14:25:09;97211.19;;;19.73;71.35
71938;BME280;59810;48.800;9.086;2022-10-23T14:27:34;97200.72;;;19.67;71.00
71938;BME280;59810;48.800;9.086;2022-10-23T14:30:02;97205.22;;;19.63;70.97
71938;BME280;59810;48.800;9.086;2022-10-23T14:32:28;97209.09;;;19.62;71.14
71938;BME280;59810;48.800;9.086;2022-10-23T14:34:54;97209.25;;;19.56;71.78
71938;BME280;59810;48.800;9.086;2022-10-23T14:37:23;97209.34;;;19.51;72.19
71938;BME280;59810;48.800;9.086;2022-10-23T14:39:48;97203.88;;;19.51;72.18
71938;BME280;59810;48.800;9.086;2022-10-23T14:42:16;97212.09;;;19.51;72.60
71938;BME280;59810;48.800;9.086;2022-10-23T14:44:41;97209.47;;;19.46;73.10
71938;BME280;59810;48.800;9.086;2022-10-23T14:47:07;97203.34;;;19.41;73.66
71938;BME280;59810;48.800;9.086;2022-10-23T14:49:32;97197.53;;;19.34;73.82
71938;BME280;59810;48.800;9.086;2022-10-23T14:52:02;97193.00;;;19.29;73.80
71938;BME280;59810;48.800;9.086;2022-10-23T14:54:27;97189.28;;;19.25;74.43
71938;BME280;59810;48.800;9.086;2022-10-23T14:56:53;97190.56;;;19.19;75.00
71938;BME280;59810;48.800;9.086;2022-10-23T14:59:18;97181.19;;;19.11;75.74
71938;BME280;59810;48.800;9.086;2022-10-23T15:01:44;97185.34;;;19.09;75.68
71938;BME280;59810;48.800;9.086;2022-10-23T15:04:11;97189.53;;;19.06;75.96
71938;BME280;59810;48.800;9.086;2022-10-23T15:06:41;97172.31;;;19.06;75.40
71938;BME280;59810;48.800;9.086;2022-10-23T15:09:06;97174.88;;;19.02;74.84
71938;BME280;59810;48.800;9.086;2022-10-23T15:11:32;97167.63;;;18.98;74.64